createdAt,value
2022-09-03T00:00:51.834Z,40.33
2022-09-03T00:06:22.292Z,41.28
2022-09-03T00:11:41.387Z,45.08
2022-09-03T00:16:54.370Z,38.28
2022-09-03T00:22:12.835Z,46.33
2022-09-03T00:27:25.721Z,42.60
2022-09-03T00:32:54.328Z,40.10
2022-09-03T00:38:01.659Z,45.67
2022-09-03T00:43:10.237Z,46.33
2022-09-03T00:48:19.098Z,46.47
2022-09-03T00:53:46.051Z,44.22
2022-09-03T00:59:23.987Z,43.60
2022-09-03T01:04:35.930Z,41.92
2022-09-03T01:09:52.364Z,44.28
2022-09-03T01:15:00.958Z,45.45
2022-09-03T01:20:09.461Z,49.63
2022-09-03T01:25:53.690Z,46.45
2022-09-03T01:31:37.730Z,49.97
2022-09-03T01:37:22.824Z,46.22
2022-09-03T01:42:30.875Z,55.83
2022-09-03T01:47:57.878Z,50.08
2022-09-03T01:53:06.495Z,52.15
2022-09-03T01:58:44.639Z,46.47
2022-09-03T02:03:52.283Z,53.33
2022-09-03T02:08:57.909Z,52.05
2022-09-03T02:14:03.488Z,53.75
2022-09-03T02:19:14.061Z,45.97
2022-09-03T02:24:19.743Z,50.72
2022-09-03T02:29:25.977Z,41.70
2022-09-03T02:34:33.250Z,46.63
2022-09-03T02:39:40.470Z,46.42
2022-09-03T02:44:59.292Z,40.55
2022-09-03T02:50:04.984Z,40.55
2022-09-03T02:55:11.169Z,45.10
2022-09-03T03:00:17.580Z,37.28
2022-09-03T03:05:50.191Z,41.90
2022-09-03T03:11:00.296Z,33.03
2022-09-03T03:16:10.683Z,33.60
2022-09-03T03:21:19.240Z,40.88
2022-09-03T03:26:25.702Z,47.22
2022-09-03T03:31:34.209Z,56.90
2022-09-03T03:36:40.310Z,56.38
2022-09-03T03:41:46.390Z,99.88
2022-09-03T03:46:51.639Z,58.17
2022-09-03T03:51:56.665Z,55.03
2022-09-03T03:57:01.844Z,46.35
2022-09-03T04:02:07.412Z,44.17
2022-09-03T04:07:13.733Z,46.45
2022-09-03T04:12:20.746Z,45.55
2022-09-03T04:17:26.819Z,47.08
2022-09-03T04:22:33.061Z,54.55
2022-09-03T04:27:38.270Z,37.72
2022-09-03T04:38:02.374Z,45.60
2022-09-03T04:43:08.085Z,43.45
2022-09-03T04:48:14.624Z,45.70
2022-09-03T04:53:20.035Z,45.33
2022-09-03T05:03:32.626Z,35.17
2022-09-03T05:08:38.752Z,38.30
2022-09-03T05:13:44.717Z,42.22
2022-09-03T05:18:50.595Z,37.40
2022-09-03T05:23:56.469Z,34.28
2022-09-03T05:29:03.974Z,37.25
2022-09-03T05:34:16.369Z,31.40
2022-09-03T05:39:23.771Z,35.10
2022-09-03T05:49:34.928Z,30.93
2022-09-03T05:54:41.003Z,31.25
2022-09-03T05:59:46.277Z,32.50
2022-09-03T06:09:56.299Z,35.17
2022-09-03T06:20:07.557Z,31.60
2022-09-03T06:25:13.662Z,35.55
2022-09-03T06:30:19.680Z,27.45
2022-09-03T06:35:25.347Z,29.27
2022-09-03T06:40:33.260Z,33.97
2022-09-03T06:45:39.826Z,29.38
2022-09-03T06:50:45.357Z,29.27
2022-09-03T06:56:03.253Z,33.58
2022-09-03T07:01:10.713Z,30.58
2022-09-03T07:06:21.316Z,33.15
2022-09-03T07:11:30.903Z,34.10
2022-09-03T07:16:38.719Z,31.35
2022-09-03T07:21:49.675Z,29.85
2022-09-03T07:26:56.503Z,31.30
2022-09-03T07:32:02.460Z,34.63
2022-09-03T07:37:12.964Z,30.58
2022-09-03T07:42:18.878Z,33.35
2022-09-03T07:47:27.140Z,32.08
2022-09-03T07:52:32.986Z,34.63
2022-09-03T07:57:38.876Z,29.77
2022-09-03T08:02:46.226Z,28.00
2022-09-03T08:07:52.472Z,31.05
2022-09-03T08:13:00.888Z,31.88
2022-09-03T08:18:06.595Z,31.17
2022-09-03T08:23:12.565Z,33.28
2022-09-03T08:28:18.285Z,36.45
2022-09-03T08:33:44.048Z,35.88
2022-09-03T08:38:50.197Z,37.45
2022-09-03T08:44:30.740Z,37.80
2022-09-03T08:50:04.431Z,34.35
2022-09-03T08:55:44.142Z,39.28
2022-09-03T09:00:52.260Z,34.78
2022-09-03T09:06:09.647Z,32.70
2022-09-03T09:11:42.316Z,39.35
2022-09-03T09:17:00.149Z,37.17
2022-09-03T09:22:12.340Z,28.38
2022-09-03T09:27:18.916Z,32.50
2022-09-03T09:32:25.218Z,36.05
2022-09-03T09:37:30.565Z,32.63
2022-09-03T09:42:36.209Z,31.95
2022-09-03T09:47:44.024Z,40.03
2022-09-03T09:52:50.766Z,31.35
2022-09-03T09:58:13.489Z,29.48
2022-09-03T10:03:22.782Z,30.58
2022-09-03T10:08:28.767Z,33.65
2022-09-03T10:13:45.007Z,33.00
2022-09-03T10:19:06.495Z,33.92
2022-09-03T10:24:18.499Z,37.33
2022-09-03T10:29:30.947Z,38.28
2022-09-03T10:34:39.504Z,40.65
2022-09-03T10:39:57.462Z,36.10
2022-09-03T10:45:23.914Z,40.58
2022-09-03T10:50:46.409Z,43.97
2022-09-03T10:56:04.487Z,45.72
2022-09-03T11:01:30.179Z,39.95
2022-09-03T11:06:52.692Z,48.25
2022-09-03T11:12:08.600Z,59.13
2022-09-03T11:17:20.377Z,51.20
2022-09-03T11:22:31.623Z,48.03
2022-09-03T11:27:55.947Z,52.15
2022-09-03T11:33:08.873Z,54.50
2022-09-03T11:38:18.133Z,47.83
2022-09-03T11:43:27.988Z,53.05
2022-09-03T11:48:45.372Z,51.65
2022-09-03T11:54:00.621Z,58.85
2022-09-03T12:04:19.615Z,42.22
2022-09-03T12:09:53.757Z,58.10
2022-09-03T12:15:28.193Z,56.80
2022-09-03T12:20:34.693Z,59.42
2022-09-03T12:25:48.923Z,49.22
2022-09-03T12:30:55.117Z,50.55
2022-09-03T12:36:03.048Z,50.70
2022-09-03T12:41:26.593Z,43.17
2022-09-03T12:46:35.255Z,47.42
2022-09-03T12:51:49.197Z,43.70
2022-09-03T12:57:01.763Z,39.95
2022-09-03T13:02:48.181Z,37.63
2022-09-03T13:08:02.125Z,43.00
2022-09-03T13:13:27.841Z,38.97
2022-09-03T13:18:40.447Z,36.80
2022-09-03T13:23:55.288Z,42.33
2022-09-03T13:29:29.833Z,38.53
2022-09-03T13:34:44.308Z,46.15
2022-09-03T13:39:56.463Z,43.95
2022-09-03T13:45:56.498Z,36.05
2022-09-03T13:51:17.540Z,38.42
2022-09-03T13:57:04.670Z,38.95
2022-09-03T14:02:25.993Z,37.35
2022-09-03T14:07:40.897Z,40.70
2022-09-03T14:12:55.209Z,35.40
2022-09-03T14:18:29.018Z,37.70
2022-09-03T14:23:52.828Z,39.10
2022-09-03T14:29:14.681Z,33.03
2022-09-03T14:34:48.106Z,37.28
2022-09-03T14:40:07.350Z,34.60
2022-09-03T14:45:22.467Z,37.50
2022-09-03T14:50:47.229Z,37.77
2022-09-03T14:56:20.133Z,31.45
2022-09-03T15:01:39.353Z,36.75
2022-09-03T15:07:03.670Z,42.35
2022-09-03T15:12:23.666Z,39.85
2022-09-03T15:17:37.698Z,34.38
2022-09-03T15:22:50.225Z,34.42
2022-09-03T15:28:11.398Z,39.53
2022-09-03T15:33:33.617Z,41.15
2022-09-03T15:38:44.267Z,47.00
2022-09-03T15:43:53.245Z,38.15
2022-09-03T15:49:06.349Z,41.15
2022-09-03T15:54:38.552Z,42.85
2022-09-03T15:59:53.481Z,41.55
2022-09-03T16:05:19.283Z,30.90
2022-09-03T16:10:34.561Z,39.28
2022-09-03T16:15:50.322Z,37.80
2022-09-03T16:26:38.626Z,42.25
2022-09-03T16:31:49.645Z,39.22
2022-09-03T16:37:45.878Z,38.75
2022-09-03T16:43:40.331Z,38.10
2022-09-03T16:48:55.811Z,37.22
2022-09-03T16:54:20.096Z,42.00
2022-09-03T16:59:53.156Z,45.50
2022-09-03T17:05:04.698Z,41.45
2022-09-03T17:10:29.207Z,37.97
2022-09-03T17:16:01.059Z,39.47
2022-09-03T17:21:28.621Z,37.95
2022-09-03T17:26:47.148Z,39.83
2022-09-03T17:32:02.420Z,40.28
2022-09-03T17:37:46.248Z,38.95
2022-09-03T17:43:35.215Z,35.33
2022-09-03T17:48:54.817Z,36.72
2022-09-03T17:54:09.680Z,41.20
2022-09-03T17:59:48.610Z,41.53
2022-09-03T18:05:24.792Z,40.35
2022-09-03T18:10:51.422Z,41.58
2022-09-03T18:16:15.077Z,37.33
2022-09-03T18:21:45.804Z,42.40
2022-09-03T18:27:29.638Z,38.17
2022-09-03T18:33:19.887Z,39.88
2022-09-03T18:38:52.277Z,39.90
2022-09-03T18:44:34.739Z,39.00
2022-09-03T18:50:15.712Z,39.13
2022-09-03T18:55:58.173Z,37.47
2022-09-03T19:01:24.794Z,37.53
2022-09-03T19:07:03.718Z,38.63
2022-09-03T19:12:59.787Z,35.70
2022-09-03T19:18:47.149Z,35.70
2022-09-03T19:24:12.729Z,39.45
2022-09-03T19:30:07.327Z,46.22
2022-09-03T19:35:43.492Z,39.45
2022-09-03T19:41:38.088Z,41.00
2022-09-03T19:47:14.348Z,36.05
2022-09-03T19:53:05.220Z,42.72
2022-09-03T19:58:42.638Z,33.78
2022-09-03T20:04:07.899Z,35.85
2022-09-03T20:09:36.162Z,42.22
2022-09-03T20:14:41.868Z,36.38
2022-09-03T20:19:52.577Z,43.88
2022-09-03T20:25:21.077Z,48.00
2022-09-03T20:30:37.913Z,41.50
2022-09-03T20:35:49.097Z,43.42
2022-09-03T20:41:16.917Z,46.97
2022-09-03T20:46:42.596Z,43.72
2022-09-03T21:02:48.079Z,50.78
2022-09-03T21:08:05.572Z,58.47
2022-09-03T21:13:24.495Z,50.35
2022-09-03T21:18:44.732Z,47.63
2022-09-03T21:24:06.470Z,52.67
2022-09-03T21:29:24.305Z,46.70
2022-09-03T21:34:41.278Z,52.72
2022-09-03T21:39:59.031Z,55.10
2022-09-03T21:45:13.108Z,48.47
2022-09-03T21:50:24.805Z,57.53
2022-09-03T21:56:05.399Z,49.55
2022-09-03T22:01:17.209Z,52.42
2022-09-03T22:06:30.572Z,52.47
2022-09-03T22:11:53.225Z,59.67
2022-09-03T22:17:14.329Z,56.30
2022-09-03T22:22:45.394Z,50.55
2022-09-03T22:28:24.193Z,50.95
2022-09-03T22:33:49.324Z,48.20
2022-09-03T22:39:33.291Z,57.73
2022-09-03T22:45:17.054Z,51.35
2022-09-03T22:50:34.856Z,50.70
2022-09-03T22:55:48.784Z,60.17
2022-09-03T23:01:32.840Z,52.78
2022-09-03T23:06:54.842Z,50.25
2022-09-03T23:12:06.523Z,61.80
2022-09-03T23:17:21.768Z,55.25
2022-09-03T23:22:30.360Z,51.20
2022-09-03T23:28:02.894Z,51.53
2022-09-03T23:33:10.027Z,58.92
2022-09-03T23:38:51.139Z,56.58
2022-09-03T23:44:32.454Z,55.58
2022-09-03T23:50:00.591Z,60.05
2022-09-03T23:55:30.664Z,53.92
